createdAt,value
2022-10-17T00:00:02.140Z,11
2022-10-17T00:20:02.762Z,11.1
2022-10-17T00:40:02.977Z,11.1
2022-10-17T01:00:02.303Z,11.1
2022-10-17T01:20:02.903Z,11
2022-10-17T01:40:02.326Z,11
2022-10-17T02:00:02.585Z,11
2022-10-17T02:20:02.381Z,10.8
2022-10-17T02:40:02.672Z,10.9
2022-10-17T03:00:02.886Z,10.9
2022-10-17T03:20:02.359Z,10.9
2022-10-17T03:40:02.802Z,11.1
2022-10-17T04:00:02.197Z,11.2
2022-10-17T04:20:02.614Z,11.3
2022-10-17T04:40:02.879Z,11.5
2022-10-17T05:00:02.398Z,11.6
2022-10-17T05:20:02.612Z,11.7
2022-10-17T05:40:03.314Z,11.8
2022-10-17T06:00:02.640Z,11.9
2022-10-17T06:20:02.147Z,12.2
2022-10-17T06:40:02.588Z,12.6
2022-10-17T07:00:02.944Z,13.1
2022-10-17T07:20:02.466Z,13.6
2022-10-17T07:40:02.722Z,14.2
2022-10-17T08:00:03.080Z,14.8
2022-10-17T08:20:02.360Z,15.9
2022-10-17T08:40:02.740Z,17.4
2022-10-17T09:00:03.208Z,18.5
2022-10-17T09:20:02.897Z,20.2
2022-10-17T09:40:02.324Z,21.4
2022-10-17T10:00:03.046Z,22.1
2022-10-17T10:20:02.867Z,22.8
2022-10-17T10:40:02.392Z,23.5
2022-10-17T11:00:02.777Z,23.3
2022-10-17T11:20:02.223Z,24.2
2022-10-17T11:40:02.785Z,24.5
2022-10-17T12:00:02.090Z,24.3
2022-10-17T12:20:03.002Z,24.2
2022-10-17T12:40:02.270Z,24.4
2022-10-17T13:00:02.621Z,24.3
2022-10-17T13:20:02.330Z,23.7
2022-10-17T13:40:11.621Z,23.5
2022-10-17T14:00:02.832Z,23.3
2022-10-17T14:40:02.671Z,23
2022-10-17T15:00:03.658Z,22.9
2022-10-17T15:20:02.323Z,22.6
2022-10-17T15:40:02.637Z,22.2
2022-10-17T16:00:03.043Z,21.8
2022-10-17T16:20:02.634Z,21.4
2022-10-17T16:40:03.118Z,20.8
2022-10-17T17:00:02.475Z,20.4
2022-10-17T17:20:03.003Z,19.7
2022-10-17T17:40:02.267Z,18.9
2022-10-17T18:00:02.713Z,18.2
2022-10-17T18:20:02.481Z,17.6
2022-10-17T18:40:03.038Z,17.1
2022-10-17T19:00:02.838Z,16.9
2022-10-17T19:20:02.516Z,16.6
2022-10-17T19:40:03.333Z,16.1
2022-10-17T20:00:02.854Z,15.9
2022-10-17T20:20:03.678Z,15.6
2022-10-17T20:40:22.996Z,15.3
2022-10-17T21:00:02.826Z,15
2022-10-17T21:20:02.635Z,14.8
2022-10-17T21:40:03.171Z,14.5
2022-10-17T22:00:02.548Z,14.2
2022-10-17T22:20:02.879Z,14
2022-10-17T22:40:02.193Z,13.8
2022-10-17T23:00:02.619Z,13.7
2022-10-17T23:20:02.047Z,13.6
2022-10-17T23:40:02.387Z,13.5
